sensor_id;sensor_type;location;lat;lon;timestamp;pressure;altitude;pressure_sealevel;temperature;humidity
54936;BME280;40838;50.676;7.838;2023-03-01T00:01:03;99440.59;;;-5.35;99.49
54936;BME280;40838;50.676;7.838;2023-03-01T00:03:30;99442.78;;;-5.12;98.39
54936;BME280;40838;50.676;7.838;2023-03-01T00:05:57;99441.19;;;-5.41;99.41
54936;BME280;40838;50.676;7.838;2023-03-01T00:08:24;99431.56;;;-4.77;96.07
54936;BME280;40838;50.676;7.838;2023-03-01T00:11:00;99428.72;;;-4.83;95.95
54936;BME280;40838;50.676;7.838;2023-03-01T00:13:27;99441.19;;;-6.33;100.00
54936;BME280;40838;50.676;7.838;2023-03-01T00:15:54;99438.75;;;-6.35;100.00
54936;BME280;40838;50.676;7.838;2023-03-01T00:18:22;99433.88;;;-6.10;100.00
54936;BME280;40838;50.676;7.838;2023-03-01T00:20:50;99431.22;;;-6.28;100.00
54936;BME280;40838;50.676;7.838;2023-03-01T00:23:17;99421.38;;;-5.87;100.00
54936;BME280;40838;50.676;7.838;2023-03-01T00:25:44;99427.31;;;-5.77;99.11
54936;BME280;40838;50.676;7.838;2023-03-01T00:28:11;99428.50;;;-5.99;100.00
54936;BME280;40838;50.676;7.838;2023-03-01T00:30:38;99430.38;;;-5.91;100.00
54936;BME280;40838;50.676;7.838;2023-03-01T00:33:05;99433.25;;;-5.94;100.00
54936;BME280;40838;50.676;7.838;2023-03-01T00:35:33;99428.91;;;-5.94;100.00
54936;BME280;40838;50.676;7.838;2023-03-01T00:38:01;99431.41;;;-5.47;99.66
54936;BME280;40838;50.676;7.838;2023-03-01T00:40:28;99434.53;;;-5.25;98.02
54936;BME280;40838;50.676;7.838;2023-03-01T00:42:55;99440.19;;;-4.94;96.31
54936;BME280;40838;50.676;7.838;2023-03-01T00:45:22;99431.22;;;-5.91;100.00
54936;BME280;40838;50.676;7.838;2023-03-01T00:47:49;99441.03;;;-5.85;100.00
54936;BME280;40838;50.676;7.838;2023-03-01T00:50:19;99449.84;;;-6.05;100.00
54936;BME280;40838;50.676;7.838;2023-03-01T00:52:52;99443.97;;;-5.80;100.00
54936;BME280;40838;50.676;7.838;2023-03-01T00:55:19;99435.06;;;-5.67;99.49
54936;BME280;40838;50.676;7.838;2023-03-01T00:57:46;99439.75;;;-5.81;100.00
54936;BME280;40838;50.676;7.838;2023-03-01T01:00:16;99441.63;;;-6.01;100.00
54936;BME280;40838;50.676;7.838;2023-03-01T01:02:44;99445.44;;;-5.67;99.43
54936;BME280;40838;50.676;7.838;2023-03-01T01:05:11;99443.47;;;-5.83;98.95
54936;BME280;40838;50.676;7.838;2023-03-01T01:07:38;99445.06;;;-6.10;100.00
54936;BME280;40838;50.676;7.838;2023-03-01T01:10:08;99443.69;;;-6.04;100.00
54936;BME280;40838;50.676;7.838;2023-03-01T01:12:43;99439.38;;;-5.86;100.00
54936;BME280;40838;50.676;7.838;2023-03-01T01:15:10;99436.00;;;-6.33;100.00
54936;BME280;40838;50.676;7.838;2023-03-01T01:17:50;99425.09;;;-5.72;99.94
54936;BME280;40838;50.676;7.838;2023-03-01T01:20:17;99421.66;;;-5.90;99.10
54936;BME280;40838;50.676;7.838;2023-03-01T01:22:44;99414.44;;;-5.96;100.00
54936;BME280;40838;50.676;7.838;2023-03-01T01:25:12;99406.88;;;-6.17;100.00
54936;BME280;40838;50.676;7.838;2023-03-01T01:27:39;99402.06;;;-6.12;100.00
54936;BME280;40838;50.676;7.838;2023-03-01T01:30:07;99411.88;;;-5.79;100.00
54936;BME280;40838;50.676;7.838;2023-03-01T01:32:34;99402.44;;;-5.80;100.00
54936;BME280;40838;50.676;7.838;2023-03-01T01:35:01;99400.38;;;-4.95;98.77
54936;BME280;40838;50.676;7.838;2023-03-01T01:37:28;99406.94;;;-6.37;100.00
54936;BME280;40838;50.676;7.838;2023-03-01T01:39:57;99396.25;;;-6.24;100.00
54936;BME280;40838;50.676;7.838;2023-03-01T01:42:26;99391.38;;;-6.94;100.00
54936;BME280;40838;50.676;7.838;2023-03-01T01:45:31;99401.72;;;-7.03;100.00
54936;BME280;40838;50.676;7.838;2023-03-01T01:48:00;99397.03;;;-6.71;100.00
54936;BME280;40838;50.676;7.838;2023-03-01T01:50:29;99395.66;;;-6.55;100.00
54936;BME280;40838;50.676;7.838;2023-03-01T01:53:05;99390.94;;;-6.32;100.00
54936;BME280;40838;50.676;7.838;2023-03-01T01:55:36;99388.28;;;-6.13;100.00
54936;BME280;40838;50.676;7.838;2023-03-01T01:58:07;99386.84;;;-6.25;100.00
54936;BME280;40838;50.676;7.838;2023-03-01T02:00:36;99392.88;;;-6.34;100.00
54936;BME280;40838;50.676;7.838;2023-03-01T02:03:08;99389.41;;;-5.88;100.00
54936;BME280;40838;50.676;7.838;2023-03-01T02:05:38;99393.66;;;-6.61;100.00
54936;BME280;40838;50.676;7.838;2023-03-01T02:08:11;99389.31;;;-6.33;100.00
54936;BME280;40838;50.676;7.838;2023-03-01T02:10:41;99398.50;;;-6.49;100.00
54936;BME280;40838;50.676;7.838;2023-03-01T02:13:11;99400.13;;;-6.38;100.00
54936;BME280;40838;50.676;7.838;2023-03-01T02:15:42;99397.25;;;-7.11;100.00
54936;BME280;40838;50.676;7.838;2023-03-01T02:18:12;99394.91;;;-7.04;100.00
54936;BME280;40838;50.676;7.838;2023-03-01T02:20:47;99390.41;;;-7.12;100.00
54936;BME280;40838;50.676;7.838;2023-03-01T02:23:17;99385.38;;;-7.23;100.00
54936;BME280;40838;50.676;7.838;2023-03-01T02:25:49;99377.84;;;-6.78;100.00
54936;BME280;40838;50.676;7.838;2023-03-01T02:28:35;99375.69;;;-6.45;100.00
54936;BME280;40838;50.676;7.838;2023-03-01T02:31:09;99376.50;;;-7.69;100.00
54936;BME280;40838;50.676;7.838;2023-03-01T02:33:54;99373.53;;;-7.16;100.00
54936;BME280;40838;50.676;7.838;2023-03-01T02:36:37;99362.00;;;-6.75;100.00
54936;BME280;40838;50.676;7.838;2023-03-01T02:39:07;99360.97;;;-7.30;100.00
54936;BME280;40838;50.676;7.838;2023-03-01T02:41:44;99368.81;;;-6.74;100.00
54936;BME280;40838;50.676;7.838;2023-03-01T02:44:13;99367.50;;;-6.87;100.00
54936;BME280;40838;50.676;7.838;2023-03-01T02:46:46;99370.31;;;-6.61;100.00
54936;BME280;40838;50.676;7.838;2023-03-01T02:49:20;99358.06;;;-6.79;100.00
54936;BME280;40838;50.676;7.838;2023-03-01T02:51:56;99354.72;;;-6.52;100.00
54936;BME280;40838;50.676;7.838;2023-03-01T02:54:29;99358.69;;;-7.14;100.00
54936;BME280;40838;50.676;7.838;2023-03-01T02:56:58;99363.28;;;-6.98;100.00
54936;BME280;40838;50.676;7.838;2023-03-01T02:59:31;99357.31;;;-6.14;100.00
54936;BME280;40838;50.676;7.838;2023-03-01T03:02:06;99364.38;;;-7.20;100.00
54936;BME280;40838;50.676;7.838;2023-03-01T03:04:34;99356.84;;;-7.82;100.00
54936;BME280;40838;50.676;7.838;2023-03-01T03:07:01;99353.50;;;-7.14;100.00
54936;BME280;40838;50.676;7.838;2023-03-01T03:09:28;99352.78;;;-7.06;100.00
54936;BME280;40838;50.676;7.838;2023-03-01T03:11:55;99340.38;;;-6.56;100.00
54936;BME280;40838;50.676;7.838;2023-03-01T03:14:22;99346.78;;;-6.50;100.00
54936;BME280;40838;50.676;7.838;2023-03-01T03:16:51;99338.31;;;-6.42;100.00
54936;BME280;40838;50.676;7.838;2023-03-01T03:19:18;99330.91;;;-6.75;100.00
54936;BME280;40838;50.676;7.838;2023-03-01T03:21:45;99320.13;;;-6.80;100.00
54936;BME280;40838;50.676;7.838;2023-03-01T03:24:15;99323.53;;;-6.79;100.00
54936;BME280;40838;50.676;7.838;2023-03-01T03:26:44;99324.78;;;-6.83;100.00
54936;BME280;40838;50.676;7.838;2023-03-01T03:29:18;99325.78;;;-6.19;100.00
54936;BME280;40838;50.676;7.838;2023-03-01T03:31:47;99324.25;;;-6.97;100.00
54936;BME280;40838;50.676;7.838;2023-03-01T03:34:17;99322.34;;;-6.38;100.00
54936;BME280;40838;50.676;7.838;2023-03-01T03:36:46;99323.31;;;-6.21;100.00
54936;BME280;40838;50.676;7.838;2023-03-01T03:39:13;99325.91;;;-6.49;100.00
54936;BME280;40838;50.676;7.838;2023-03-01T03:41:40;99329.41;;;-6.12;100.00
54936;BME280;40838;50.676;7.838;2023-03-01T03:44:07;99327.38;;;-6.09;100.00
54936;BME280;40838;50.676;7.838;2023-03-01T03:46:33;99328.53;;;-7.44;100.00
54936;BME280;40838;50.676;7.838;2023-03-01T03:49:02;99323.16;;;-6.94;100.00
54936;BME280;40838;50.676;7.838;2023-03-01T03:51:30;99317.38;;;-7.35;100.00
54936;BME280;40838;50.676;7.838;2023-03-01T03:53:58;99308.59;;;-6.95;100.00
54936;BME280;40838;50.676;7.838;2023-03-01T03:56:25;99306.00;;;-8.21;100.00
54936;BME280;40838;50.676;7.838;2023-03-01T03:58:52;99304.13;;;-7.90;100.00
54936;BME280;40838;50.676;7.838;2023-03-01T04:01:25;99297.50;;;-7.54;100.00
54936;BME280;40838;50.676;7.838;2023-03-01T04:03:52;99303.56;;;-8.03;100.00
54936;BME280;40838;50.676;7.838;2023-03-01T04:06:21;99307.28;;;-7.77;100.00
54936;BME280;40838;50.676;7.838;2023-03-01T04:08:49;99301.38;;;-8.18;100.00
54936;BME280;40838;50.676;7.838;2023-03-01T04:11:23;99299.22;;;-7.93;100.00
54936;BME280;40838;50.676;7.838;2023-03-01T04:13:55;99295.59;;;-7.71;100.00
54936;BME280;40838;50.676;7.838;2023-03-01T04:16:22;99310.13;;;-7.70;100.00
54936;BME280;40838;50.676;7.838;2023-03-01T04:18:48;99299.81;;;-7.51;100.00
54936;BME280;40838;50.676;7.838;2023-03-01T04:21:16;99303.75;;;-7.37;100.00
54936;BME280;40838;50.676;7.838;2023-03-01T04:23:43;99302.22;;;-7.20;100.00
54936;BME280;40838;50.676;7.838;2023-03-01T04:26:13;99301.16;;;-7.27;100.00
54936;BME280;40838;50.676;7.838;2023-03-01T04:28:42;99303.31;;;-7.13;100.00
54936;BME280;40838;50.676;7.838;2023-03-01T04:31:13;99304.13;;;-8.50;100.00
54936;BME280;40838;50.676;7.838;2023-03-01T04:33:43;99300.09;;;-7.64;100.00
54936;BME280;40838;50.676;7.838;2023-03-01T04:36:13;99295.44;;;-7.70;100.00
54936;BME280;40838;50.676;7.838;2023-03-01T04:38:40;99288.06;;;-7.94;100.00
54936;BME280;40838;50.676;7.838;2023-03-01T04:41:09;99285.22;;;-7.91;100.00
54936;BME280;40838;50.676;7.838;2023-03-01T04:43:39;99294.53;;;-8.29;100.00
54936;BME280;40838;50.676;7.838;2023-03-01T04:46:08;99284.50;;;-8.12;100.00
54936;BME280;40838;50.676;7.838;2023-03-01T04:48:35;99296.50;;;-8.01;100.00
54936;BME280;40838;50.676;7.838;2023-03-01T04:51:03;99294.19;;;-7.27;100.00
54936;BME280;40838;50.676;7.838;2023-03-01T04:53:32;99285.88;;;-7.11;100.00
54936;BME280;40838;50.676;7.838;2023-03-01T04:55:58;99287.50;;;-7.10;100.00
54936;BME280;40838;50.676;7.838;2023-03-01T04:58:26;99286.28;;;-7.35;100.00
54936;BME280;40838;50.676;7.838;2023-03-01T05:00:55;99295.94;;;-7.08;100.00
54936;BME280;40838;50.676;7.838;2023-03-01T05:03:22;99291.59;;;-7.17;100.00
54936;BME280;40838;50.676;7.838;2023-03-01T05:05:50;99287.34;;;-6.99;100.00
54936;BME280;40838;50.676;7.838;2023-03-01T05:08:18;99293.97;;;-6.86;100.00
54936;BME280;40838;50.676;7.838;2023-03-01T05:10:47;99289.56;;;-7.23;100.00
54936;BME280;40838;50.676;7.838;2023-03-01T05:13:16;99302.19;;;-7.01;100.00
54936;BME280;40838;50.676;7.838;2023-03-01T05:15:48;99298.34;;;-6.97;100.00
54936;BME280;40838;50.676;7.838;2023-03-01T05:18:21;99298.16;;;-6.66;100.00
54936;BME280;40838;50.676;7.838;2023-03-01T05:20:53;99307.75;;;-6.86;100.00
54936;BME280;40838;50.676;7.838;2023-03-01T05:23:21;99306.63;;;-6.36;100.00
54936;BME280;40838;50.676;7.838;2023-03-01T05:25:48;99298.84;;;-6.36;100.00
54936;BME280;40838;50.676;7.838;2023-03-01T05:28:18;99293.09;;;-5.85;100.00
54936;BME280;40838;50.676;7.838;2023-03-01T05:30:57;99292.78;;;-5.82;100.00
54936;BME280;40838;50.676;7.838;2023-03-01T05:33:25;99290.63;;;-5.68;100.00
54936;BME280;40838;50.676;7.838;2023-03-01T05:35:53;99281.38;;;-5.53;98.78
54936;BME280;40838;50.676;7.838;2023-03-01T05:38:21;99290.34;;;-7.03;100.00
54936;BME280;40838;50.676;7.838;2023-03-01T05:40:49;99279.09;;;-6.47;100.00
54936;BME280;40838;50.676;7.838;2023-03-01T05:43:16;99279.59;;;-6.61;100.00
54936;BME280;40838;50.676;7.838;2023-03-01T05:45:44;99279.00;;;-6.28;100.00
54936;BME280;40838;50.676;7.838;2023-03-01T05:48:12;99273.13;;;-6.02;100.00
54936;BME280;40838;50.676;7.838;2023-03-01T05:50:42;99276.66;;;-6.49;100.00
54936;BME280;40838;50.676;7.838;2023-03-01T05:53:11;99275.41;;;-7.58;100.00
54936;BME280;40838;50.676;7.838;2023-03-01T05:55:38;99267.25;;;-7.53;100.00
54936;BME280;40838;50.676;7.838;2023-03-01T05:58:07;99265.34;;;-7.51;100.00
54936;BME280;40838;50.676;7.838;2023-03-01T06:00:35;99263.56;;;-7.51;100.00
54936;BME280;40838;50.676;7.838;2023-03-01T06:03:03;99262.59;;;-7.50;100.00
54936;BME280;40838;50.676;7.838;2023-03-01T06:05:30;99284.34;;;-8.20;100.00
54936;BME280;40838;50.676;7.838;2023-03-01T06:08:00;99275.84;;;-7.43;100.00
54936;BME280;40838;50.676;7.838;2023-03-01T06:10:27;99282.25;;;-7.67;100.00
54936;BME280;40838;50.676;7.838;2023-03-01T06:12:56;99275.28;;;-7.37;100.00
54936;BME280;40838;50.676;7.838;2023-03-01T06:15:26;99277.03;;;-8.06;100.00
54936;BME280;40838;50.676;7.838;2023-03-01T06:17:55;99276.78;;;-7.73;100.00
54936;BME280;40838;50.676;7.838;2023-03-01T06:20:24;99279.91;;;-7.70;100.00
54936;BME280;40838;50.676;7.838;2023-03-01T06:22:52;99286.97;;;-7.82;100.00
54936;BME280;40838;50.676;7.838;2023-03-01T06:25:23;99284.69;;;-7.65;100.00
54936;BME280;40838;50.676;7.838;2023-03-01T06:27:50;99278.81;;;-7.77;100.00
54936;BME280;40838;50.676;7.838;2023-03-01T06:30:20;99270.66;;;-7.43;100.00
54936;BME280;40838;50.676;7.838;2023-03-01T06:32:47;99282.06;;;-7.26;100.00
54936;BME280;40838;50.676;7.838;2023-03-01T06:35:16;99277.59;;;-7.34;100.00
54936;BME280;40838;50.676;7.838;2023-03-01T06:37:44;99277.44;;;-8.10;100.00
54936;BME280;40838;50.676;7.838;2023-03-01T06:40:13;99276.09;;;-7.85;100.00
54936;BME280;40838;50.676;7.838;2023-03-01T06:42:43;99277.44;;;-7.91;100.00
54936;BME280;40838;50.676;7.838;2023-03-01T06:45:17;99284.28;;;-7.51;100.00
54936;BME280;40838;50.676;7.838;2023-03-01T06:47:44;99271.94;;;-7.10;100.00
54936;BME280;40838;50.676;7.838;2023-03-01T06:50:12;99275.88;;;-6.59;100.00
54936;BME280;40838;50.676;7.838;2023-03-01T06:52:39;99276.16;;;-8.35;100.00
54936;BME280;40838;50.676;7.838;2023-03-01T06:55:10;99278.56;;;-7.54;100.00
54936;BME280;40838;50.676;7.838;2023-03-01T06:57:37;99274.19;;;-6.78;100.00
54936;BME280;40838;50.676;7.838;2023-03-01T07:00:09;99269.28;;;-6.81;99.96
54936;BME280;40838;50.676;7.838;2023-03-01T07:02:36;99278.31;;;-6.95;100.00
54936;BME280;40838;50.676;7.838;2023-03-01T07:05:03;99276.34;;;-7.30;100.00
54936;BME280;40838;50.676;7.838;2023-03-01T07:07:32;99276.44;;;-6.65;99.30
54936;BME280;40838;50.676;7.838;2023-03-01T07:09:58;99270.72;;;-6.69;98.85
54936;BME280;40838;50.676;7.838;2023-03-01T07:12:26;99267.47;;;-6.43;97.83
54936;BME280;40838;50.676;7.838;2023-03-01T07:14:53;99263.84;;;-6.32;97.21
54936;BME280;40838;50.676;7.838;2023-03-01T07:17:22;99260.13;;;-6.20;95.32
54936;BME280;40838;50.676;7.838;2023-03-01T07:19:49;99271.53;;;-6.13;95.20
54936;BME280;40838;50.676;7.838;2023-03-01T07:22:16;99266.91;;;-5.73;94.06
54936;BME280;40838;50.676;7.838;2023-03-01T07:24:43;99256.22;;;-5.52;92.40
54936;BME280;40838;50.676;7.838;2023-03-01T07:27:10;99249.03;;;-5.06;91.59
54936;BME280;40838;50.676;7.838;2023-03-01T07:29:37;99243.59;;;-4.02;86.49
54936;BME280;40838;50.676;7.838;2023-03-01T07:32:05;99238.47;;;-4.45;87.84
54936;BME280;40838;50.676;7.838;2023-03-01T07:34:33;99241.06;;;-6.29;97.64
54936;BME280;40838;50.676;7.838;2023-03-01T07:37:00;99232.09;;;-5.63;93.81
54936;BME280;40838;50.676;7.838;2023-03-01T07:39:27;99243.38;;;-6.53;99.45
54936;BME280;40838;50.676;7.838;2023-03-01T07:41:54;99233.72;;;-6.15;98.27
54936;BME280;40838;50.676;7.838;2023-03-01T07:44:21;99234.91;;;-5.12;91.43
54936;BME280;40838;50.676;7.838;2023-03-01T07:46:48;99214.50;;;-3.98;83.79
54936;BME280;40838;50.676;7.838;2023-03-01T07:49:16;99221.78;;;-4.18;84.34
54936;BME280;40838;50.676;7.838;2023-03-01T07:51:44;99223.91;;;-2.67;75.18
54936;BME280;40838;50.676;7.838;2023-03-01T07:54:11;99222.84;;;-2.10;71.94
54936;BME280;40838;50.676;7.838;2023-03-01T07:56:38;99224.47;;;-0.96;66.22
54936;BME280;40838;50.676;7.838;2023-03-01T07:59:06;99208.69;;;0.99;52.69
54936;BME280;40838;50.676;7.838;2023-03-01T08:01:39;99226.28;;;0.49;53.20
54936;BME280;40838;50.676;7.838;2023-03-01T08:04:14;99230.03;;;-2.13;71.37
54936;BME280;40838;50.676;7.838;2023-03-01T08:06:41;99231.88;;;-1.00;68.08
54936;BME280;40838;50.676;7.838;2023-03-01T08:09:20;99227.38;;;-0.25;64.73
54936;BME280;40838;50.676;7.838;2023-03-01T08:11:47;99230.16;;;-0.92;67.17
54936;BME280;40838;50.676;7.838;2023-03-01T08:14:15;99231.00;;;0.53;59.88
54936;BME280;40838;50.676;7.838;2023-03-01T08:16:42;99226.13;;;1.48;54.23
54936;BME280;40838;50.676;7.838;2023-03-01T08:19:14;99225.13;;;3.10;47.51
54936;BME280;40838;50.676;7.838;2023-03-01T08:21:41;99222.66;;;3.08;46.17
54936;BME280;40838;50.676;7.838;2023-03-01T08:24:14;99223.63;;;1.94;52.90
54936;BME280;40838;50.676;7.838;2023-03-01T08:26:43;99221.13;;;2.41;53.06
54936;BME280;40838;50.676;7.838;2023-03-01T08:29:30;99217.00;;;1.99;53.66
54936;BME280;40838;50.676;7.838;2023-03-01T08:31:57;99223.88;;;3.19;50.86
54936;BME280;40838;50.676;7.838;2023-03-01T08:34:25;99217.50;;;3.47;48.34
54936;BME280;40838;50.676;7.838;2023-03-01T08:36:52;99213.66;;;4.51;45.27
54936;BME280;40838;50.676;7.838;2023-03-01T08:39:19;99205.69;;;4.83;43.60
54936;BME280;40838;50.676;7.838;2023-03-01T08:41:48;99211.56;;;5.58;41.04
54936;BME280;40838;50.676;7.838;2023-03-01T08:44:15;99202.88;;;4.28;40.77
54936;BME280;40838;50.676;7.838;2023-03-01T08:46:43;99209.13;;;2.92;49.82
54936;BME280;40838;50.676;7.838;2023-03-01T08:49:17;99210.34;;;2.23;58.70
54936;BME280;40838;50.676;7.838;2023-03-01T08:51:45;99217.75;;;1.31;65.84
54936;BME280;40838;50.676;7.838;2023-03-01T08:54:16;99218.47;;;1.12;62.77
54936;BME280;40838;50.676;7.838;2023-03-01T08:56:44;99203.25;;;4.81;46.75
54936;BME280;40838;50.676;7.838;2023-03-01T08:59:18;99206.69;;;2.97;50.17
54936;BME280;40838;50.676;7.838;2023-03-01T09:01:45;99207.13;;;2.14;50.91
54936;BME280;40838;50.676;7.838;2023-03-01T09:04:16;99209.53;;;2.15;49.95
54936;BME280;40838;50.676;7.838;2023-03-01T09:06:43;99210.34;;;2.29;48.48
54936;BME280;40838;50.676;7.838;2023-03-01T09:09:19;99209.66;;;1.26;55.05
54936;BME280;40838;50.676;7.838;2023-03-01T09:11:52;99206.53;;;3.50;45.82
54936;BME280;40838;50.676;7.838;2023-03-01T09:14:20;99192.38;;;4.14;42.80
54936;BME280;40838;50.676;7.838;2023-03-01T09:16:47;99200.66;;;2.16;48.36
54936;BME280;40838;50.676;7.838;2023-03-01T09:19:16;99200.91;;;1.60;49.41
54936;BME280;40838;50.676;7.838;2023-03-01T09:21:43;99190.22;;;3.21;45.71
54936;BME280;40838;50.676;7.838;2023-03-01T09:24:19;99185.31;;;2.67;45.01
54936;BME280;40838;50.676;7.838;2023-03-01T09:26:47;99192.59;;;2.45;47.30
54936;BME280;40838;50.676;7.838;2023-03-01T09:29:16;99199.72;;;3.29;44.83
54936;BME280;40838;50.676;7.838;2023-03-01T09:31:44;99199.28;;;2.40;44.29
54936;BME280;40838;50.676;7.838;2023-03-01T09:34:21;99203.25;;;2.36;45.92
54936;BME280;40838;50.676;7.838;2023-03-01T09:36:49;99192.34;;;2.86;44.88
54936;BME280;40838;50.676;7.838;2023-03-01T09:39:16;99179.13;;;3.96;39.95
54936;BME280;40838;50.676;7.838;2023-03-01T09:41:57;99180.63;;;2.62;42.74
54936;BME280;40838;50.676;7.838;2023-03-01T09:44:35;99185.50;;;2.65;43.85
54936;BME280;40838;50.676;7.838;2023-03-01T09:47:16;99175.88;;;3.17;43.10
54936;BME280;40838;50.676;7.838;2023-03-01T09:49:45;99182.44;;;2.28;45.45
54936;BME280;40838;50.676;7.838;2023-03-01T09:52:23;99183.69;;;2.72;43.82
54936;BME280;40838;50.676;7.838;2023-03-01T09:54:56;99178.78;;;2.96;41.45
54936;BME280;40838;50.676;7.838;2023-03-01T09:57:29;99166.34;;;5.48;36.92
54936;BME280;40838;50.676;7.838;2023-03-01T10:00:16;99165.72;;;4.54;37.53
54936;BME280;40838;50.676;7.838;2023-03-01T10:02:51;99171.03;;;4.73;38.61
54936;BME280;40838;50.676;7.838;2023-03-01T10:05:33;99167.84;;;4.14;38.79
54936;BME280;40838;50.676;7.838;2023-03-01T10:08:14;99160.28;;;4.49;37.86
54936;BME280;40838;50.676;7.838;2023-03-01T10:10:48;99148.81;;;7.37;34.55
54936;BME280;40838;50.676;7.838;2023-03-01T10:13:18;99162.56;;;4.89;35.86
54936;BME280;40838;50.676;7.838;2023-03-01T10:15:49;99159.84;;;5.32;34.68
54936;BME280;40838;50.676;7.838;2023-03-01T10:18:24;99146.19;;;5.66;34.83
54936;BME280;40838;50.676;7.838;2023-03-01T10:20:55;99143.69;;;6.71;32.52
54936;BME280;40838;50.676;7.838;2023-03-01T10:23:24;99139.31;;;5.46;34.68
54936;BME280;40838;50.676;7.838;2023-03-01T10:26:09;99127.38;;;6.28;33.68
54936;BME280;40838;50.676;7.838;2023-03-01T10:28:45;99117.38;;;6.30;33.90
54936;BME280;40838;50.676;7.838;2023-03-01T10:31:20;99119.28;;;5.69;34.58
54936;BME280;40838;50.676;7.838;2023-03-01T10:33:51;99114.34;;;4.94;35.08
54936;BME280;40838;50.676;7.838;2023-03-01T10:36:20;99094.38;;;5.46;33.68
54936;BME280;40838;50.676;7.838;2023-03-01T10:38:49;99105.72;;;6.31;33.62
54936;BME280;40838;50.676;7.838;2023-03-01T10:41:17;99094.59;;;8.07;30.49
54936;BME280;40838;50.676;7.838;2023-03-01T10:43:47;99107.50;;;5.41;35.06
54936;BME280;40838;50.676;7.838;2023-03-01T10:46:28;99113.03;;;5.93;32.78
54936;BME280;40838;50.676;7.838;2023-03-01T10:49:18;99112.88;;;8.59;29.70
54936;BME280;40838;50.676;7.838;2023-03-01T10:51:46;99110.94;;;5.84;30.50
54936;BME280;40838;50.676;7.838;2023-03-01T10:54:19;99096.81;;;5.18;34.64
54936;BME280;40838;50.676;7.838;2023-03-01T10:56:48;99100.22;;;5.78;32.01
54936;BME280;40838;50.676;7.838;2023-03-01T10:59:26;99106.72;;;6.88;32.72
54936;BME280;40838;50.676;7.838;2023-03-01T11:02:16;99113.22;;;6.45;31.13
54936;BME280;40838;50.676;7.838;2023-03-01T11:05:02;99094.78;;;5.92;35.03
54936;BME280;40838;50.676;7.838;2023-03-01T11:07:29;99095.38;;;6.06;34.44
54936;BME280;40838;50.676;7.838;2023-03-01T11:09:58;99082.81;;;6.71;32.46
54936;BME280;40838;50.676;7.838;2023-03-01T11:12:29;99084.22;;;6.03;32.73
54936;BME280;40838;50.676;7.838;2023-03-01T11:14:58;99076.66;;;5.77;32.62
54936;BME280;40838;50.676;7.838;2023-03-01T11:17:27;99077.22;;;6.21;31.69
54936;BME280;40838;50.676;7.838;2023-03-01T11:20:09;99070.38;;;6.60;31.97
54936;BME280;40838;50.676;7.838;2023-03-01T11:22:45;99058.78;;;8.65;31.32
54936;BME280;40838;50.676;7.838;2023-03-01T11:25:14;99070.53;;;5.53;32.46
54936;BME280;40838;50.676;7.838;2023-03-01T11:27:44;99080.16;;;6.71;32.55
54936;BME280;40838;50.676;7.838;2023-03-01T11:30:18;99064.69;;;7.78;30.22
54936;BME280;40838;50.676;7.838;2023-03-01T11:32:59;99060.94;;;5.40;31.80
54936;BME280;40838;50.676;7.838;2023-03-01T11:35:31;99060.16;;;5.09;34.31
54936;BME280;40838;50.676;7.838;2023-03-01T11:38:13;99043.25;;;6.53;31.66
54936;BME280;40838;50.676;7.838;2023-03-01T11:40:46;99063.94;;;5.13;33.16
54936;BME280;40838;50.676;7.838;2023-03-01T11:43:19;99064.56;;;6.23;32.45
54936;BME280;40838;50.676;7.838;2023-03-01T11:46:02;99060.81;;;5.77;32.17
54936;BME280;40838;50.676;7.838;2023-03-01T11:48:53;99034.53;;;6.06;29.65
54936;BME280;40838;50.676;7.838;2023-03-01T11:51:38;99042.94;;;4.70;31.64
54936;BME280;40838;50.676;7.838;2023-03-01T11:54:27;99032.75;;;4.92;33.92
54936;BME280;40838;50.676;7.838;2023-03-01T11:57:07;99031.78;;;4.86;34.13
54936;BME280;40838;50.676;7.838;2023-03-01T12:00:02;99024.47;;;4.88;33.25
54936;BME280;40838;50.676;7.838;2023-03-01T12:02:46;99019.94;;;4.40;33.53
54936;BME280;40838;50.676;7.838;2023-03-01T12:05:28;99022.66;;;4.34;33.60
54936;BME280;40838;50.676;7.838;2023-03-01T12:08:10;99024.50;;;4.33;34.82
54936;BME280;40838;50.676;7.838;2023-03-01T12:10:47;99020.25;;;4.26;33.27
54936;BME280;40838;50.676;7.838;2023-03-01T12:16:37;99020.34;;;4.19;33.17
54936;BME280;40838;50.676;7.838;2023-03-01T12:19:39;99010.97;;;3.54;35.67
54936;BME280;40838;50.676;7.838;2023-03-01T12:22:20;99002.00;;;4.31;34.55
54936;BME280;40838;50.676;7.838;2023-03-01T12:25:19;99008.41;;;4.72;33.88
54936;BME280;40838;50.676;7.838;2023-03-01T12:31:07;99000.91;;;5.17;31.99
54936;BME280;40838;50.676;7.838;2023-03-01T12:33:47;98995.56;;;5.89;31.69
54936;BME280;40838;50.676;7.838;2023-03-01T12:36:25;98984.09;;;5.00;31.68
54936;BME280;40838;50.676;7.838;2023-03-01T12:39:06;98987.81;;;5.52;31.29
54936;BME280;40838;50.676;7.838;2023-03-01T12:41:48;98975.03;;;5.61;29.10
54936;BME280;40838;50.676;7.838;2023-03-01T12:44:37;98981.91;;;4.48;31.63
54936;BME280;40838;50.676;7.838;2023-03-01T12:47:22;98971.03;;;4.75;30.86
54936;BME280;40838;50.676;7.838;2023-03-01T12:49:55;98971.81;;;4.75;31.62
54936;BME280;40838;50.676;7.838;2023-03-01T12:52:29;98967.50;;;4.81;31.54
54936;BME280;40838;50.676;7.838;2023-03-01T12:55:02;98971.94;;;4.32;31.45
54936;BME280;40838;50.676;7.838;2023-03-01T12:57:39;98964.25;;;4.30;31.89
54936;BME280;40838;50.676;7.838;2023-03-01T13:00:22;98944.97;;;4.78;30.40
54936;BME280;40838;50.676;7.838;2023-03-01T13:02:57;98960.88;;;4.90;30.63
54936;BME280;40838;50.676;7.838;2023-03-01T13:05:34;98960.44;;;5.35;29.48
54936;BME280;40838;50.676;7.838;2023-03-01T13:08:13;98951.97;;;4.73;29.94
54936;BME280;40838;50.676;7.838;2023-03-01T13:10:46;98951.56;;;4.87;30.18
54936;BME280;40838;50.676;7.838;2023-03-01T13:13:21;98946.34;;;4.14;30.67
54936;BME280;40838;50.676;7.838;2023-03-01T13:15:49;98952.84;;;4.11;31.20
54936;BME280;40838;50.676;7.838;2023-03-01T13:18:33;98951.16;;;4.72;30.97
54936;BME280;40838;50.676;7.838;2023-03-01T13:21:02;98950.66;;;4.94;32.10
54936;BME280;40838;50.676;7.838;2023-03-01T13:23:34;98939.03;;;4.34;30.79
54936;BME280;40838;50.676;7.838;2023-03-01T13:26:05;98923.38;;;4.70;31.25
54936;BME280;40838;50.676;7.838;2023-03-01T13:28:56;98928.13;;;4.31;31.56